sensor_id;sensor_type;location;lat;lon;timestamp;P1;durP1;ratioP1;P2;durP2;ratioP2
72590;SDS011;60625;51.212;5.952;2022-07-29T00:01:20;4.00;;;0.70;;
72590;SDS011;60625;51.212;5.952;2022-07-29T00:06:21;7.50;;;1.20;;
72590;SDS011;60625;51.212;5.952;2022-07-29T00:11:21;4.50;;;1.20;;
72590;SDS011;60625;51.212;5.952;2022-07-29T00:16:22;4.10;;;0.80;;
72590;SDS011;60625;51.212;5.952;2022-07-29T00:21:23;5.10;;;0.60;;
72590;SDS011;60625;51.212;5.952;2022-07-29T00:26:23;7.60;;;1.00;;
72590;SDS011;60625;51.212;5.952;2022-07-29T00:31:24;4.00;;;0.80;;
72590;SDS011;60625;51.212;5.952;2022-07-29T00:36:25;6.40;;;0.80;;
72590;SDS011;60625;51.212;5.952;2022-07-29T00:41:26;4.60;;;1.10;;
72590;SDS011;60625;51.212;5.952;2022-07-29T00:46:26;8.90;;;1.00;;
72590;SDS011;60625;51.212;5.952;2022-07-29T00:51:27;9.50;;;1.40;;
72590;SDS011;60625;51.212;5.952;2022-07-29T00:56:30;4.80;;;1.10;;
72590;SDS011;60625;51.212;5.952;2022-07-29T01:01:31;5.30;;;1.50;;
72590;SDS011;60625;51.212;5.952;2022-07-29T01:06:32;8.60;;;1.60;;
72590;SDS011;60625;51.212;5.952;2022-07-29T01:11:33;9.70;;;1.50;;
72590;SDS011;60625;51.212;5.952;2022-07-29T01:16:55;10.20;;;1.10;;
72590;SDS011;60625;51.212;5.952;2022-07-29T01:22:35;4.80;;;1.30;;
72590;SDS011;60625;51.212;5.952;2022-07-29T01:33:08;5.30;;;1.20;;
72590;SDS011;60625;51.212;5.952;2022-07-29T01:38:20;6.40;;;1.50;;
72590;SDS011;60625;51.212;5.952;2022-07-29T01:43:46;7.70;;;1.40;;
72590;SDS011;60625;51.212;5.952;2022-07-29T01:48:59;6.80;;;1.20;;
72590;SDS011;60625;51.212;5.952;2022-07-29T01:54:13;5.70;;;1.80;;
72590;SDS011;60625;51.212;5.952;2022-07-29T01:59:17;5.30;;;1.00;;
72590;SDS011;60625;51.212;5.952;2022-07-29T02:04:20;5.40;;;1.30;;
72590;SDS011;60625;51.212;5.952;2022-07-29T02:09:22;6.50;;;1.80;;
72590;SDS011;60625;51.212;5.952;2022-07-29T02:14:24;5.90;;;1.50;;
72590;SDS011;60625;51.212;5.952;2022-07-29T02:19:29;5.60;;;1.80;;
72590;SDS011;60625;51.212;5.952;2022-07-29T02:24:33;5.60;;;2.10;;
72590;SDS011;60625;51.212;5.952;2022-07-29T02:29:37;7.90;;;2.10;;
72590;SDS011;60625;51.212;5.952;2022-07-29T02:34:39;10.00;;;2.60;;
72590;SDS011;60625;51.212;5.952;2022-07-29T02:39:42;6.60;;;2.10;;
72590;SDS011;60625;51.212;5.952;2022-07-29T02:44:44;7.80;;;2.20;;
72590;SDS011;60625;51.212;5.952;2022-07-29T02:49:52;7.00;;;2.40;;
72590;SDS011;60625;51.212;5.952;2022-07-29T02:55:00;8.00;;;1.90;;
72590;SDS011;60625;51.212;5.952;2022-07-29T03:00:07;7.90;;;1.80;;
72590;SDS011;60625;51.212;5.952;2022-07-29T03:05:20;6.70;;;1.80;;
72590;SDS011;60625;51.212;5.952;2022-07-29T03:10:21;6.00;;;1.60;;
72590;SDS011;60625;51.212;5.952;2022-07-29T03:15:22;4.60;;;1.70;;
72590;SDS011;60625;51.212;5.952;2022-07-29T03:20:23;6.10;;;1.80;;
72590;SDS011;60625;51.212;5.952;2022-07-29T03:25:24;6.10;;;2.10;;
72590;SDS011;60625;51.212;5.952;2022-07-29T03:30:27;9.90;;;1.80;;
72590;SDS011;60625;51.212;5.952;2022-07-29T03:35:30;6.90;;;2.10;;
72590;SDS011;60625;51.212;5.952;2022-07-29T03:40:37;5.70;;;1.80;;
72590;SDS011;60625;51.212;5.952;2022-07-29T03:45:44;9.60;;;1.70;;
72590;SDS011;60625;51.212;5.952;2022-07-29T03:50:47;6.80;;;2.40;;
72590;SDS011;60625;51.212;5.952;2022-07-29T03:55:53;6.50;;;1.80;;
72590;SDS011;60625;51.212;5.952;2022-07-29T04:00:55;6.40;;;2.10;;
72590;SDS011;60625;51.212;5.952;2022-07-29T04:06:01;7.50;;;2.60;;
72590;SDS011;60625;51.212;5.952;2022-07-29T04:11:05;7.30;;;2.00;;
72590;SDS011;60625;51.212;5.952;2022-07-29T04:16:06;9.40;;;2.10;;
72590;SDS011;60625;51.212;5.952;2022-07-29T04:21:06;5.40;;;1.90;;
72590;SDS011;60625;51.212;5.952;2022-07-29T04:26:07;8.60;;;2.60;;
72590;SDS011;60625;51.212;5.952;2022-07-29T04:31:12;7.00;;;2.30;;
72590;SDS011;60625;51.212;5.952;2022-07-29T04:36:12;6.50;;;2.20;;
72590;SDS011;60625;51.212;5.952;2022-07-29T04:41:13;8.10;;;2.80;;
72590;SDS011;60625;51.212;5.952;2022-07-29T04:46:14;6.20;;;2.30;;
72590;SDS011;60625;51.212;5.952;2022-07-29T04:51:15;6.00;;;2.70;;
72590;SDS011;60625;51.212;5.952;2022-07-29T04:56:15;5.90;;;2.30;;
72590;SDS011;60625;51.212;5.952;2022-07-29T05:01:16;6.30;;;2.20;;
72590;SDS011;60625;51.212;5.952;2022-07-29T05:06:16;6.40;;;2.30;;
72590;SDS011;60625;51.212;5.952;2022-07-29T05:11:17;5.40;;;2.40;;
72590;SDS011;60625;51.212;5.952;2022-07-29T05:16:17;6.90;;;2.80;;
72590;SDS011;60625;51.212;5.952;2022-07-29T05:21:18;9.40;;;2.70;;
72590;SDS011;60625;51.212;5.952;2022-07-29T05:26:19;6.80;;;2.80;;
72590;SDS011;60625;51.212;5.952;2022-07-29T05:31:19;6.50;;;2.50;;
72590;SDS011;60625;51.212;5.952;2022-07-29T05:36:19;6.50;;;2.50;;
72590;SDS011;60625;51.212;5.952;2022-07-29T05:41:20;7.80;;;2.70;;
72590;SDS011;60625;51.212;5.952;2022-07-29T05:46:21;6.60;;;2.70;;
72590;SDS011;60625;51.212;5.952;2022-07-29T05:51:22;7.80;;;2.50;;
72590;SDS011;60625;51.212;5.952;2022-07-29T05:56:22;6.90;;;2.60;;
72590;SDS011;60625;51.212;5.952;2022-07-29T06:01:23;5.40;;;2.40;;
72590;SDS011;60625;51.212;5.952;2022-07-29T06:06:24;7.30;;;2.90;;
72590;SDS011;60625;51.212;5.952;2022-07-29T06:11:24;7.90;;;2.40;;
72590;SDS011;60625;51.212;5.952;2022-07-29T06:16:25;6.90;;;2.40;;
72590;SDS011;60625;51.212;5.952;2022-07-29T06:21:26;10.10;;;2.80;;
72590;SDS011;60625;51.212;5.952;2022-07-29T06:26:26;6.20;;;2.80;;
72590;SDS011;60625;51.212;5.952;2022-07-29T06:31:27;8.30;;;2.60;;
72590;SDS011;60625;51.212;5.952;2022-07-29T06:36:27;8.10;;;2.60;;
72590;SDS011;60625;51.212;5.952;2022-07-29T06:41:28;8.10;;;1.90;;
72590;SDS011;60625;51.212;5.952;2022-07-29T06:46:31;8.00;;;2.40;;
72590;SDS011;60625;51.212;5.952;2022-07-29T06:51:33;6.10;;;1.90;;
72590;SDS011;60625;51.212;5.952;2022-07-29T06:56:34;7.10;;;1.90;;
72590;SDS011;60625;51.212;5.952;2022-07-29T07:01:39;8.20;;;2.80;;
72590;SDS011;60625;51.212;5.952;2022-07-29T07:06:42;6.40;;;2.30;;
72590;SDS011;60625;51.212;5.952;2022-07-29T07:11:42;6.40;;;2.50;;
72590;SDS011;60625;51.212;5.952;2022-07-29T07:16:42;7.60;;;2.50;;
72590;SDS011;60625;51.212;5.952;2022-07-29T07:21:43;6.70;;;2.70;;
72590;SDS011;60625;51.212;5.952;2022-07-29T07:26:43;6.10;;;2.50;;
72590;SDS011;60625;51.212;5.952;2022-07-29T07:31:44;7.80;;;2.70;;
72590;SDS011;60625;51.212;5.952;2022-07-29T07:36:45;7.30;;;2.80;;
72590;SDS011;60625;51.212;5.952;2022-07-29T07:41:45;7.60;;;3.00;;
72590;SDS011;60625;51.212;5.952;2022-07-29T07:46:46;8.10;;;3.20;;
72590;SDS011;60625;51.212;5.952;2022-07-29T07:51:46;5.80;;;2.60;;
72590;SDS011;60625;51.212;5.952;2022-07-29T07:56:47;6.70;;;2.30;;
72590;SDS011;60625;51.212;5.952;2022-07-29T08:01:51;6.30;;;3.10;;
72590;SDS011;60625;51.212;5.952;2022-07-29T08:06:52;6.60;;;3.10;;
72590;SDS011;60625;51.212;5.952;2022-07-29T08:11:55;9.60;;;3.50;;
72590;SDS011;60625;51.212;5.952;2022-07-29T08:16:56;7.20;;;3.00;;
72590;SDS011;60625;51.212;5.952;2022-07-29T08:21:56;8.30;;;3.00;;
72590;SDS011;60625;51.212;5.952;2022-07-29T08:26:57;6.60;;;3.40;;
72590;SDS011;60625;51.212;5.952;2022-07-29T08:31:57;7.40;;;2.60;;
72590;SDS011;60625;51.212;5.952;2022-07-29T08:36:58;6.20;;;3.50;;
72590;SDS011;60625;51.212;5.952;2022-07-29T08:41:58;6.50;;;3.30;;
72590;SDS011;60625;51.212;5.952;2022-07-29T08:46:59;8.50;;;3.30;;
72590;SDS011;60625;51.212;5.952;2022-07-29T08:52:00;7.30;;;3.20;;
72590;SDS011;60625;51.212;5.952;2022-07-29T08:57:01;7.50;;;3.60;;
72590;SDS011;60625;51.212;5.952;2022-07-29T09:02:03;5.60;;;3.20;;
72590;SDS011;60625;51.212;5.952;2022-07-29T09:07:05;7.90;;;3.40;;
72590;SDS011;60625;51.212;5.952;2022-07-29T09:12:06;8.30;;;3.70;;
72590;SDS011;60625;51.212;5.952;2022-07-29T09:17:08;8.00;;;3.40;;
72590;SDS011;60625;51.212;5.952;2022-07-29T09:22:09;8.60;;;3.70;;
72590;SDS011;60625;51.212;5.952;2022-07-29T09:27:25;8.10;;;3.90;;
72590;SDS011;60625;51.212;5.952;2022-07-29T09:32:27;9.10;;;3.70;;
72590;SDS011;60625;51.212;5.952;2022-07-29T09:37:28;8.00;;;3.90;;
72590;SDS011;60625;51.212;5.952;2022-07-29T09:42:29;9.00;;;4.00;;
72590;SDS011;60625;51.212;5.952;2022-07-29T09:47:44;7.40;;;4.00;;
72590;SDS011;60625;51.212;5.952;2022-07-29T09:52:49;10.50;;;4.10;;
72590;SDS011;60625;51.212;5.952;2022-07-29T09:57:51;8.30;;;4.30;;
72590;SDS011;60625;51.212;5.952;2022-07-29T10:02:59;9.30;;;4.60;;
72590;SDS011;60625;51.212;5.952;2022-07-29T10:08:01;7.60;;;4.30;;
72590;SDS011;60625;51.212;5.952;2022-07-29T10:13:05;9.40;;;4.40;;
72590;SDS011;60625;51.212;5.952;2022-07-29T10:18:09;9.40;;;4.00;;
72590;SDS011;60625;51.212;5.952;2022-07-29T10:23:10;8.60;;;4.30;;
72590;SDS011;60625;51.212;5.952;2022-07-29T10:28:10;8.80;;;4.00;;
72590;SDS011;60625;51.212;5.952;2022-07-29T10:38:41;9.60;;;4.60;;
72590;SDS011;60625;51.212;5.952;2022-07-29T10:43:48;11.80;;;5.80;;
72590;SDS011;60625;51.212;5.952;2022-07-29T10:49:15;10.50;;;5.10;;
72590;SDS011;60625;51.212;5.952;2022-07-29T10:59:33;11.60;;;5.50;;
72590;SDS011;60625;51.212;5.952;2022-07-29T11:09:43;10.20;;;6.20;;
72590;SDS011;60625;51.212;5.952;2022-07-29T11:25:30;13.50;;;6.60;;
72590;SDS011;60625;51.212;5.952;2022-07-29T11:31:06;13.50;;;7.30;;
72590;SDS011;60625;51.212;5.952;2022-07-29T11:36:09;7.70;;;5.50;;
72590;SDS011;60625;51.212;5.952;2022-07-29T11:46:47;12.30;;;5.40;;
72590;SDS011;60625;51.212;5.952;2022-07-29T11:51:53;9.60;;;5.60;;
72590;SDS011;60625;51.212;5.952;2022-07-29T11:56:58;9.80;;;6.80;;
72590;SDS011;60625;51.212;5.952;2022-07-29T12:01:59;9.20;;;5.10;;
72590;SDS011;60625;51.212;5.952;2022-07-29T12:07:00;9.30;;;5.50;;
72590;SDS011;60625;51.212;5.952;2022-07-29T12:12:00;9.00;;;5.10;;
72590;SDS011;60625;51.212;5.952;2022-07-29T12:17:01;8.00;;;4.70;;
72590;SDS011;60625;51.212;5.952;2022-07-29T12:22:01;8.60;;;4.30;;
72590;SDS011;60625;51.212;5.952;2022-07-29T12:27:02;7.10;;;4.10;;
72590;SDS011;60625;51.212;5.952;2022-07-29T12:32:03;8.50;;;4.70;;
72590;SDS011;60625;51.212;5.952;2022-07-29T12:37:06;8.40;;;5.40;;
72590;SDS011;60625;51.212;5.952;2022-07-29T12:42:11;7.40;;;4.40;;
72590;SDS011;60625;51.212;5.952;2022-07-29T12:47:13;10.30;;;5.00;;
72590;SDS011;60625;51.212;5.952;2022-07-29T12:52:25;9.00;;;5.30;;
72590;SDS011;60625;51.212;5.952;2022-07-29T12:57:31;8.30;;;4.80;;
72590;SDS011;60625;51.212;5.952;2022-07-29T13:02:32;6.90;;;3.40;;
72590;SDS011;60625;51.212;5.952;2022-07-29T13:07:34;7.10;;;4.30;;
72590;SDS011;60625;51.212;5.952;2022-07-29T13:12:38;6.80;;;3.40;;
72590;SDS011;60625;51.212;5.952;2022-07-29T13:17:40;6.40;;;3.40;;
72590;SDS011;60625;51.212;5.952;2022-07-29T13:22:47;9.60;;;4.20;;
72590;SDS011;60625;51.212;5.952;2022-07-29T13:27:48;7.80;;;3.40;;
72590;SDS011;60625;51.212;5.952;2022-07-29T13:32:50;5.40;;;2.60;;
72590;SDS011;60625;51.212;5.952;2022-07-29T13:37:51;6.20;;;3.50;;
72590;SDS011;60625;51.212;5.952;2022-07-29T13:42:52;6.90;;;2.90;;
72590;SDS011;60625;51.212;5.952;2022-07-29T13:47:53;7.20;;;2.30;;
72590;SDS011;60625;51.212;5.952;2022-07-29T13:52:53;5.20;;;2.10;;
72590;SDS011;60625;51.212;5.952;2022-07-29T13:57:54;6.70;;;3.00;;
72590;SDS011;60625;51.212;5.952;2022-07-29T14:02:54;6.70;;;3.30;;
72590;SDS011;60625;51.212;5.952;2022-07-29T14:07:55;5.70;;;3.00;;
72590;SDS011;60625;51.212;5.952;2022-07-29T14:12:55;7.40;;;3.00;;
72590;SDS011;60625;51.212;5.952;2022-07-29T14:17:56;8.50;;;3.20;;
72590;SDS011;60625;51.212;5.952;2022-07-29T14:22:56;6.40;;;2.60;;
72590;SDS011;60625;51.212;5.952;2022-07-29T14:27:57;5.60;;;1.90;;
72590;SDS011;60625;51.212;5.952;2022-07-29T14:32:57;5.00;;;2.00;;
72590;SDS011;60625;51.212;5.952;2022-07-29T14:37:58;8.20;;;2.50;;
72590;SDS011;60625;51.212;5.952;2022-07-29T14:42:58;5.70;;;2.10;;
72590;SDS011;60625;51.212;5.952;2022-07-29T14:47:59;4.30;;;2.20;;
72590;SDS011;60625;51.212;5.952;2022-07-29T14:53:00;5.30;;;2.30;;
72590;SDS011;60625;51.212;5.952;2022-07-29T14:58:01;8.00;;;2.10;;
72590;SDS011;60625;51.212;5.952;2022-07-29T15:03:01;5.40;;;2.50;;
72590;SDS011;60625;51.212;5.952;2022-07-29T15:08:02;9.20;;;2.40;;
72590;SDS011;60625;51.212;5.952;2022-07-29T15:13:03;6.60;;;2.40;;
72590;SDS011;60625;51.212;5.952;2022-07-29T15:18:03;6.50;;;2.20;;
72590;SDS011;60625;51.212;5.952;2022-07-29T15:23:04;7.40;;;2.30;;
72590;SDS011;60625;51.212;5.952;2022-07-29T15:28:05;6.40;;;2.30;;
72590;SDS011;60625;51.212;5.952;2022-07-29T15:33:09;6.10;;;2.50;;
72590;SDS011;60625;51.212;5.952;2022-07-29T15:38:09;7.00;;;2.70;;
72590;SDS011;60625;51.212;5.952;2022-07-29T15:43:10;6.40;;;2.80;;
72590;SDS011;60625;51.212;5.952;2022-07-29T15:48:10;5.10;;;2.50;;
72590;SDS011;60625;51.212;5.952;2022-07-29T15:53:11;5.60;;;2.30;;
72590;SDS011;60625;51.212;5.952;2022-07-29T15:58:11;4.40;;;1.60;;
72590;SDS011;60625;51.212;5.952;2022-07-29T16:03:12;8.20;;;2.40;;
72590;SDS011;60625;51.212;5.952;2022-07-29T16:08:13;6.30;;;2.20;;
72590;SDS011;60625;51.212;5.952;2022-07-29T16:13:14;5.60;;;2.20;;
72590;SDS011;60625;51.212;5.952;2022-07-29T16:18:14;5.40;;;2.30;;
72590;SDS011;60625;51.212;5.952;2022-07-29T16:23:15;6.20;;;2.10;;
72590;SDS011;60625;51.212;5.952;2022-07-29T16:28:15;5.60;;;2.40;;
72590;SDS011;60625;51.212;5.952;2022-07-29T16:33:16;7.50;;;2.40;;
72590;SDS011;60625;51.212;5.952;2022-07-29T16:38:17;4.90;;;2.00;;
72590;SDS011;60625;51.212;5.952;2022-07-29T16:43:18;5.90;;;2.20;;
72590;SDS011;60625;51.212;5.952;2022-07-29T16:48:21;5.50;;;1.80;;
72590;SDS011;60625;51.212;5.952;2022-07-29T16:53:21;5.80;;;1.80;;
72590;SDS011;60625;51.212;5.952;2022-07-29T16:58:22;12.80;;;2.10;;
72590;SDS011;60625;51.212;5.952;2022-07-29T17:03:24;7.70;;;2.20;;
72590;SDS011;60625;51.212;5.952;2022-07-29T17:08:27;7.00;;;1.70;;
72590;SDS011;60625;51.212;5.952;2022-07-29T17:13:27;8.00;;;2.20;;
72590;SDS011;60625;51.212;5.952;2022-07-29T17:18:28;9.60;;;2.70;;
72590;SDS011;60625;51.212;5.952;2022-07-29T17:23:28;8.80;;;3.30;;
72590;SDS011;60625;51.212;5.952;2022-07-29T17:28:29;5.70;;;2.40;;
72590;SDS011;60625;51.212;5.952;2022-07-29T17:33:29;5.90;;;2.10;;
72590;SDS011;60625;51.212;5.952;2022-07-29T17:38:30;9.40;;;2.60;;
72590;SDS011;60625;51.212;5.952;2022-07-29T17:43:30;7.40;;;2.40;;
72590;SDS011;60625;51.212;5.952;2022-07-29T17:48:31;5.00;;;2.40;;
72590;SDS011;60625;51.212;5.952;2022-07-29T17:53:32;5.10;;;2.30;;
72590;SDS011;60625;51.212;5.952;2022-07-29T17:58:33;5.30;;;2.50;;
72590;SDS011;60625;51.212;5.952;2022-07-29T18:03:33;5.70;;;2.10;;
72590;SDS011;60625;51.212;5.952;2022-07-29T18:08:35;7.20;;;2.40;;
72590;SDS011;60625;51.212;5.952;2022-07-29T18:13:38;7.50;;;2.30;;
72590;SDS011;60625;51.212;5.952;2022-07-29T18:18:39;7.50;;;1.80;;
72590;SDS011;60625;51.212;5.952;2022-07-29T18:23:40;6.60;;;1.80;;
72590;SDS011;60625;51.212;5.952;2022-07-29T18:28:41;7.70;;;2.00;;
72590;SDS011;60625;51.212;5.952;2022-07-29T18:33:43;7.30;;;2.10;;
72590;SDS011;60625;51.212;5.952;2022-07-29T18:38:47;8.20;;;1.80;;
72590;SDS011;60625;51.212;5.952;2022-07-29T18:43:47;6.50;;;2.50;;
72590;SDS011;60625;51.212;5.952;2022-07-29T18:48:48;7.20;;;2.40;;
72590;SDS011;60625;51.212;5.952;2022-07-29T18:53:48;4.00;;;2.10;;
72590;SDS011;60625;51.212;5.952;2022-07-29T18:58:51;4.80;;;1.40;;
72590;SDS011;60625;51.212;5.952;2022-07-29T19:03:52;4.90;;;1.20;;
72590;SDS011;60625;51.212;5.952;2022-07-29T19:08:52;6.40;;;1.40;;
72590;SDS011;60625;51.212;5.952;2022-07-29T19:13:55;4.90;;;1.70;;
72590;SDS011;60625;51.212;5.952;2022-07-29T19:18:56;5.00;;;1.30;;
72590;SDS011;60625;51.212;5.952;2022-07-29T19:23:57;6.10;;;1.90;;
72590;SDS011;60625;51.212;5.952;2022-07-29T19:28:58;9.30;;;3.90;;
72590;SDS011;60625;51.212;5.952;2022-07-29T19:33:58;10.60;;;2.20;;
72590;SDS011;60625;51.212;5.952;2022-07-29T19:38:59;7.20;;;1.70;;
72590;SDS011;60625;51.212;5.952;2022-07-29T19:44:00;5.60;;;2.00;;
72590;SDS011;60625;51.212;5.952;2022-07-29T19:49:03;5.70;;;2.00;;
72590;SDS011;60625;51.212;5.952;2022-07-29T19:54:07;5.50;;;1.60;;
72590;SDS011;60625;51.212;5.952;2022-07-29T19:59:08;5.40;;;2.10;;
72590;SDS011;60625;51.212;5.952;2022-07-29T20:04:08;5.40;;;2.00;;
72590;SDS011;60625;51.212;5.952;2022-07-29T20:09:09;6.20;;;2.30;;
72590;SDS011;60625;51.212;5.952;2022-07-29T20:14:15;6.30;;;2.30;;
72590;SDS011;60625;51.212;5.952;2022-07-29T20:19:15;4.60;;;1.90;;
72590;SDS011;60625;51.212;5.952;2022-07-29T20:24:20;5.60;;;2.00;;
72590;SDS011;60625;51.212;5.952;2022-07-29T20:29:21;6.50;;;2.30;;
72590;SDS011;60625;51.212;5.952;2022-07-29T20:34:24;5.70;;;2.70;;
72590;SDS011;60625;51.212;5.952;2022-07-29T20:39:28;8.70;;;3.20;;
72590;SDS011;60625;51.212;5.952;2022-07-29T20:44:28;7.30;;;2.80;;
72590;SDS011;60625;51.212;5.952;2022-07-29T20:49:29;5.20;;;2.80;;
72590;SDS011;60625;51.212;5.952;2022-07-29T20:54:30;5.80;;;2.50;;
72590;SDS011;60625;51.212;5.952;2022-07-29T20:59:33;7.20;;;3.20;;
72590;SDS011;60625;51.212;5.952;2022-07-29T21:04:33;9.60;;;2.80;;
72590;SDS011;60625;51.212;5.952;2022-07-29T21:09:36;7.60;;;2.80;;
72590;SDS011;60625;51.212;5.952;2022-07-29T21:14:36;9.90;;;2.60;;
72590;SDS011;60625;51.212;5.952;2022-07-29T21:19:40;4.80;;;2.00;;
72590;SDS011;60625;51.212;5.952;2022-07-29T21:24:40;7.20;;;2.40;;
72590;SDS011;60625;51.212;5.952;2022-07-29T21:29:41;8.60;;;2.50;;
72590;SDS011;60625;51.212;5.952;2022-07-29T21:34:41;7.40;;;3.10;;
72590;SDS011;60625;51.212;5.952;2022-07-29T21:39:42;7.40;;;2.90;;
72590;SDS011;60625;51.212;5.952;2022-07-29T21:44:42;6.10;;;2.40;;
72590;SDS011;60625;51.212;5.952;2022-07-29T21:49:43;7.60;;;2.80;;
72590;SDS011;60625;51.212;5.952;2022-07-29T21:54:45;5.20;;;2.70;;
72590;SDS011;60625;51.212;5.952;2022-07-29T21:59:46;5.40;;;2.70;;
72590;SDS011;60625;51.212;5.952;2022-07-29T22:04:46;6.60;;;3.50;;
72590;SDS011;60625;51.212;5.952;2022-07-29T22:09:47;6.90;;;2.50;;
72590;SDS011;60625;51.212;5.952;2022-07-29T22:14:47;7.90;;;3.50;;
72590;SDS011;60625;51.212;5.952;2022-07-29T22:19:47;7.70;;;3.10;;
72590;SDS011;60625;51.212;5.952;2022-07-29T22:24:48;6.30;;;3.40;;
72590;SDS011;60625;51.212;5.952;2022-07-29T22:29:48;7.70;;;3.60;;
72590;SDS011;60625;51.212;5.952;2022-07-29T22:34:49;8.20;;;3.20;;
72590;SDS011;60625;51.212;5.952;2022-07-29T22:39:49;10.00;;;3.80;;
72590;SDS011;60625;51.212;5.952;2022-07-29T22:44:50;8.80;;;3.30;;
72590;SDS011;60625;51.212;5.952;2022-07-29T22:49:50;7.30;;;2.70;;
72590;SDS011;60625;51.212;5.952;2022-07-29T22:54:51;7.30;;;3.40;;
72590;SDS011;60625;51.212;5.952;2022-07-29T22:59:52;7.70;;;3.10;;
72590;SDS011;60625;51.212;5.952;2022-07-29T23:04:52;8.00;;;3.30;;
72590;SDS011;60625;51.212;5.952;2022-07-29T23:09:53;6.20;;;2.90;;
72590;SDS011;60625;51.212;5.952;2022-07-29T23:14:53;9.10;;;3.30;;
72590;SDS011;60625;51.212;5.952;2022-07-29T23:19:54;9.30;;;3.70;;
72590;SDS011;60625;51.212;5.952;2022-07-29T23:24:54;8.10;;;3.00;;
72590;SDS011;60625;51.212;5.952;2022-07-29T23:29:55;7.50;;;3.60;;
72590;SDS011;60625;51.212;5.952;2022-07-29T23:34:55;10.10;;;4.40;;
72590;SDS011;60625;51.212;5.952;2022-07-29T23:39:55;8.20;;;4.00;;
72590;SDS011;60625;51.212;5.952;2022-07-29T23:44:56;8.60;;;3.90;;
72590;SDS011;60625;51.212;5.952;2022-07-29T23:49:57;12.30;;;4.20;;
72590;SDS011;60625;51.212;5.952;2022-07-29T23:54:57;7.10;;;3.60;;
72590;SDS011;60625;51.212;5.952;2022-07-29T23:59:58;9.90;;;4.00;;
